createdAt,value
2022-10-26T00:00:10.515Z,50.877140
2022-10-26T00:01:10.531Z,50.877171
2022-10-26T00:02:10.598Z,50.877178
2022-10-26T00:03:10.494Z,50.877167
2022-10-26T00:04:10.514Z,50.877178
2022-10-26T00:05:10.479Z,50.877186
2022-10-26T00:06:10.466Z,50.877148
2022-10-26T00:07:10.453Z,50.877155
2022-10-26T00:08:10.440Z,50.877132
2022-10-26T00:09:10.492Z,50.877167
2022-10-26T00:10:10.419Z,50.877163
2022-10-26T00:11:11.418Z,50.877140
2022-10-26T00:12:10.425Z,50.877167
2022-10-26T00:13:10.424Z,50.877163
2022-10-26T00:14:10.380Z,50.877182
2022-10-26T00:15:10.419Z,50.877148
2022-10-26T00:16:10.363Z,50.877190
2022-10-26T00:17:10.337Z,50.877178
2022-10-26T00:18:11.342Z,50.877186
2022-10-26T00:19:10.326Z,50.877209
2022-10-26T00:20:10.334Z,50.877224
2022-10-26T00:21:10.313Z,50.877289
2022-10-26T00:22:10.291Z,50.877285
2022-10-26T00:23:10.290Z,50.877254
2022-10-26T00:24:10.313Z,50.877262
2022-10-26T00:25:10.295Z,50.877266
2022-10-26T00:26:10.269Z,50.877296
2022-10-26T00:27:10.260Z,50.877281
2022-10-26T00:28:10.238Z,50.877327
2022-10-26T00:29:10.261Z,50.877266
2022-10-26T00:30:10.225Z,50.877151
2022-10-26T00:31:10.202Z,50.877155
2022-10-26T00:32:10.205Z,50.877239
2022-10-26T00:33:10.193Z,50.877201
2022-10-26T00:34:10.189Z,50.877243
2022-10-26T00:35:21.322Z,50.877277
2022-10-26T00:36:11.161Z,50.877220
2022-10-26T00:37:10.173Z,50.877220
2022-10-26T00:38:10.146Z,50.877151
2022-10-26T00:39:10.163Z,50.877178
2022-10-26T00:40:10.195Z,50.877251
2022-10-26T00:41:10.119Z,50.877205
2022-10-26T00:42:10.118Z,50.877258
2022-10-26T00:43:10.098Z,50.877346
2022-10-26T00:44:10.076Z,50.877384
2022-10-26T00:45:10.133Z,50.877373
2022-10-26T00:46:10.111Z,50.877445
2022-10-26T00:47:10.071Z,50.877373
2022-10-26T00:48:10.073Z,50.877399
2022-10-26T00:49:10.065Z,50.877380
2022-10-26T00:50:10.019Z,50.877396
2022-10-26T00:51:10.023Z,50.877357
2022-10-26T00:52:09.993Z,50.877365
2022-10-26T00:53:10.006Z,50.877388
2022-10-26T00:54:09.990Z,50.877346
2022-10-26T00:55:09.963Z,50.877247
2022-10-26T00:56:09.988Z,50.877228
2022-10-26T00:57:09.944Z,50.877178
2022-10-26T00:58:10.078Z,50.877186
2022-10-26T00:59:09.927Z,50.877178
2022-10-26T01:00:09.928Z,50.877148
2022-10-26T01:01:09.997Z,50.877159
2022-10-26T01:02:09.900Z,50.877148
2022-10-26T01:03:09.915Z,50.877174
2022-10-26T01:04:09.958Z,50.877186
2022-10-26T01:05:09.859Z,50.877163
2022-10-26T01:06:09.965Z,50.877125
2022-10-26T01:07:09.877Z,50.877144
2022-10-26T01:08:09.842Z,50.877159
2022-10-26T01:09:09.912Z,50.877163
2022-10-26T01:10:09.826Z,50.877140
2022-10-26T01:11:09.868Z,50.877155
2022-10-26T01:12:09.810Z,50.877151
2022-10-26T01:13:09.794Z,50.877144
2022-10-26T01:14:09.773Z,50.877129
2022-10-26T01:15:09.768Z,50.877140
2022-10-26T01:16:09.766Z,50.877171
2022-10-26T01:17:09.779Z,50.877159
2022-10-26T01:18:09.743Z,50.877140
2022-10-26T01:19:09.731Z,50.877151
2022-10-26T01:20:09.718Z,50.877155
2022-10-26T01:21:09.714Z,50.877155
2022-10-26T01:22:09.732Z,50.877174
2022-10-26T01:23:09.686Z,50.877148
2022-10-26T01:24:09.691Z,50.877159
2022-10-26T01:25:09.672Z,50.877151
2022-10-26T01:26:09.650Z,50.877144
2022-10-26T01:27:09.644Z,50.877167
2022-10-26T01:28:09.650Z,50.877178
2022-10-26T01:29:09.632Z,50.877205
2022-10-26T01:30:09.685Z,50.877213
2022-10-26T01:31:09.607Z,50.877182
2022-10-26T01:32:09.609Z,50.877174
2022-10-26T01:33:09.620Z,50.877205
2022-10-26T01:34:09.580Z,50.877193
2022-10-26T01:35:09.577Z,50.877182
2022-10-26T01:36:09.636Z,50.877197
2022-10-26T01:37:09.559Z,50.877193
2022-10-26T01:38:09.555Z,50.877201
2022-10-26T01:39:09.570Z,50.877144
2022-10-26T01:40:09.573Z,50.877155
2022-10-26T01:41:09.532Z,50.877136
2022-10-26T01:42:09.512Z,50.877121
2022-10-26T01:43:09.519Z,50.877151
2022-10-26T01:44:09.494Z,50.877167
2022-10-26T01:45:09.492Z,50.877140
2022-10-26T01:46:09.559Z,50.877102
2022-10-26T01:47:09.488Z,50.877151
2022-10-26T01:48:09.449Z,50.877190
2022-10-26T01:49:09.481Z,50.877201
2022-10-26T01:50:09.477Z,50.877186
2022-10-26T01:51:09.438Z,50.877182
2022-10-26T01:52:09.440Z,50.877190
2022-10-26T01:53:09.429Z,50.877178
2022-10-26T01:54:09.402Z,50.877213
2022-10-26T01:55:09.383Z,50.877201
2022-10-26T01:56:09.391Z,50.877190
2022-10-26T01:57:09.410Z,50.877209
2022-10-26T01:58:09.383Z,50.877201
2022-10-26T01:59:09.339Z,50.877193
2022-10-26T02:00:09.344Z,50.877193
2022-10-26T02:01:09.369Z,50.877201
2022-10-26T02:02:09.319Z,50.877205
2022-10-26T02:03:09.311Z,50.877190
2022-10-26T02:04:09.296Z,50.877190
2022-10-26T02:05:09.283Z,50.877205
2022-10-26T02:06:09.272Z,50.877193
2022-10-26T02:07:09.285Z,50.877163
2022-10-26T02:08:09.275Z,50.877197
2022-10-26T02:09:09.265Z,50.877182
2022-10-26T02:10:09.235Z,50.877190
2022-10-26T02:11:09.219Z,50.877178
2022-10-26T02:12:09.212Z,50.877193
2022-10-26T02:13:09.225Z,50.877201
2022-10-26T02:14:09.240Z,50.877213
2022-10-26T02:15:09.180Z,50.877209
2022-10-26T02:16:09.211Z,50.877216
2022-10-26T02:17:09.161Z,50.877216
2022-10-26T02:18:09.168Z,50.877205
2022-10-26T02:19:09.140Z,50.877213
2022-10-26T02:20:09.157Z,50.877213
2022-10-26T02:21:09.122Z,50.877209
2022-10-26T02:22:09.108Z,50.877232
2022-10-26T02:23:09.121Z,50.877232
2022-10-26T02:24:09.121Z,50.877220
2022-10-26T02:25:09.083Z,50.877216
2022-10-26T02:26:09.095Z,50.877239
2022-10-26T02:27:09.060Z,50.877228
2022-10-26T02:28:09.072Z,50.877228
2022-10-26T02:29:09.043Z,50.877216
2022-10-26T02:30:09.048Z,50.877220
2022-10-26T02:31:09.046Z,50.877201
2022-10-26T02:32:09.025Z,50.877209
2022-10-26T02:33:09.009Z,50.877205
2022-10-26T02:34:09.009Z,50.877213
2022-10-26T02:35:08.989Z,50.877209
2022-10-26T02:36:08.986Z,50.877205
2022-10-26T02:37:08.968Z,50.877232
2022-10-26T02:38:08.950Z,50.877213
2022-10-26T02:39:08.954Z,50.877228
2022-10-26T02:40:08.928Z,50.877224
2022-10-26T02:41:08.940Z,50.877224
2022-10-26T02:42:08.967Z,50.877220
2022-10-26T02:43:08.937Z,50.877186
2022-10-26T02:44:09.894Z,50.877213
2022-10-26T02:45:08.916Z,50.877243
2022-10-26T02:46:08.875Z,50.877247
2022-10-26T02:47:08.922Z,50.877254
2022-10-26T02:48:08.850Z,50.877258
2022-10-26T02:49:08.851Z,50.877235
2022-10-26T02:50:08.826Z,50.877232
2022-10-26T02:51:08.817Z,50.877258
2022-10-26T02:52:08.829Z,50.877239
2022-10-26T02:53:08.786Z,50.877205
2022-10-26T02:54:08.792Z,50.877239
2022-10-26T02:55:08.796Z,50.877224
2022-10-26T02:56:08.774Z,50.877235
2022-10-26T02:57:40.687Z,50.877239
2022-10-26T02:58:08.747Z,50.877270
2022-10-26T02:59:08.752Z,50.877285
2022-10-26T03:00:08.743Z,50.877251
2022-10-26T03:01:08.766Z,50.877308
2022-10-26T03:02:08.757Z,50.877304
2022-10-26T03:03:08.717Z,50.877251
2022-10-26T03:04:08.787Z,50.877247
2022-10-26T03:05:08.712Z,50.877224
2022-10-26T03:06:08.689Z,50.877254
2022-10-26T03:07:08.690Z,50.877274
2022-10-26T03:08:08.675Z,50.877258
2022-10-26T03:09:08.681Z,50.877193
2022-10-26T03:10:08.646Z,50.877228
2022-10-26T03:11:08.662Z,50.877247
2022-10-26T03:12:08.659Z,50.877239
2022-10-26T03:13:08.622Z,50.877216
2022-10-26T03:14:08.640Z,50.877216
2022-10-26T03:15:08.593Z,50.877193
2022-10-26T03:16:08.661Z,50.877178
2022-10-26T03:17:09.569Z,50.877190
2022-10-26T03:18:08.567Z,50.877205
2022-10-26T03:19:08.549Z,50.877201
2022-10-26T03:20:08.651Z,50.877205
2022-10-26T03:21:08.544Z,50.877209
2022-10-26T03:22:08.531Z,50.877205
2022-10-26T03:23:08.530Z,50.877205
2022-10-26T03:24:08.507Z,50.877224
2022-10-26T03:26:08.498Z,50.877224
2022-10-26T03:27:08.486Z,50.877216
2022-10-26T03:28:08.490Z,50.877209
2022-10-26T03:29:08.472Z,50.877201
2022-10-26T03:30:08.446Z,50.877193
2022-10-26T03:31:08.452Z,50.877163
2022-10-26T03:32:08.420Z,50.877178
2022-10-26T03:33:08.434Z,50.877197
2022-10-26T03:34:08.419Z,50.877193
2022-10-26T03:35:08.416Z,50.877205
2022-10-26T03:36:08.434Z,50.877224
2022-10-26T03:37:08.402Z,50.877209
2022-10-26T03:38:08.369Z,50.877197
2022-10-26T03:39:08.372Z,50.877197
2022-10-26T03:40:08.357Z,50.877213
2022-10-26T03:41:08.397Z,50.877209
2022-10-26T03:42:08.340Z,50.877228
2022-10-26T03:43:08.330Z,50.877197
2022-10-26T03:44:08.319Z,50.877232
2022-10-26T03:45:08.320Z,50.877213
2022-10-26T03:46:09.320Z,50.877190
2022-10-26T03:47:08.282Z,50.877201
2022-10-26T03:48:08.284Z,50.877220
2022-10-26T03:49:08.272Z,50.877201
2022-10-26T03:50:08.358Z,50.877190
2022-10-26T03:51:08.274Z,50.877174
2022-10-26T03:52:08.298Z,50.877163
2022-10-26T03:53:08.293Z,50.877163
2022-10-26T03:54:08.223Z,50.877205
2022-10-26T03:55:08.225Z,50.877163
2022-10-26T03:56:08.215Z,50.877121
2022-10-26T03:57:08.183Z,50.877129
2022-10-26T03:58:08.174Z,50.877167
2022-10-26T03:59:08.162Z,50.877182
2022-10-26T04:00:08.174Z,50.877182
2022-10-26T04:01:08.186Z,50.877190
2022-10-26T04:02:08.132Z,50.877190
2022-10-26T04:03:08.175Z,50.877197
2022-10-26T04:04:08.236Z,50.877178
2022-10-26T04:05:08.214Z,50.877178
2022-10-26T04:06:08.097Z,50.877182
2022-10-26T04:07:09.111Z,50.877190
2022-10-26T04:08:09.086Z,50.877190
2022-10-26T04:09:08.099Z,50.877186
2022-10-26T04:10:08.048Z,50.877171
2022-10-26T04:11:08.055Z,50.877193
2022-10-26T04:12:08.043Z,50.877182
2022-10-26T04:13:08.037Z,50.877182
2022-10-26T04:14:08.029Z,50.877193
2022-10-26T04:15:08.181Z,50.877190
2022-10-26T04:16:08.007Z,50.877205
2022-10-26T04:17:07.990Z,50.877201
2022-10-26T04:18:07.980Z,50.877193
2022-10-26T04:19:07.974Z,50.877193
2022-10-26T04:20:07.980Z,50.877171
2022-10-26T04:21:07.974Z,50.877190
2022-10-26T04:22:07.958Z,50.877190
2022-10-26T04:23:07.937Z,50.877182
2022-10-26T04:24:07.910Z,50.877174
2022-10-26T04:25:08.931Z,50.877190
2022-10-26T04:26:07.909Z,50.877167
2022-10-26T04:27:07.902Z,50.877178
2022-10-26T04:28:07.925Z,50.877171
2022-10-26T04:29:07.925Z,50.877129
2022-10-26T04:30:07.878Z,50.877163
2022-10-26T04:31:07.926Z,50.877193
2022-10-26T04:32:07.839Z,50.877190
2022-10-26T04:33:07.874Z,50.877182
2022-10-26T04:34:07.817Z,50.877155
2022-10-26T04:35:09.978Z,50.877197
2022-10-26T04:36:07.811Z,50.877197
2022-10-26T04:37:07.802Z,50.877186
2022-10-26T04:38:07.781Z,50.877178
2022-10-26T04:39:07.762Z,50.877216
2022-10-26T04:40:07.800Z,50.877247
2022-10-26T04:41:07.758Z,50.877197
2022-10-26T04:42:07.743Z,50.877182
2022-10-26T04:43:07.745Z,50.877171
2022-10-26T04:44:07.737Z,50.877163
2022-10-26T04:45:07.780Z,50.877174
2022-10-26T04:46:07.708Z,50.877174
2022-10-26T04:47:07.710Z,50.877193
2022-10-26T04:48:07.672Z,50.877190
2022-10-26T04:49:07.676Z,50.877167
2022-10-26T04:50:07.673Z,50.877178
2022-10-26T04:51:07.649Z,50.877178
2022-10-26T04:52:07.648Z,50.877182
2022-10-26T04:53:07.629Z,50.877163
2022-10-26T04:54:07.640Z,50.877190
2022-10-26T04:55:07.616Z,50.877174
2022-10-26T04:56:07.612Z,50.877178
2022-10-26T04:57:07.611Z,50.877171
2022-10-26T04:58:07.579Z,50.877171
2022-10-26T04:59:07.572Z,50.877171
2022-10-26T05:00:07.579Z,50.877193
2022-10-26T05:01:07.623Z,50.877155
2022-10-26T05:02:07.688Z,50.877159
2022-10-26T05:03:07.545Z,50.877182
2022-10-26T05:04:07.514Z,50.877178
2022-10-26T05:05:09.960Z,50.877163
2022-10-26T05:06:07.520Z,50.877178
2022-10-26T05:07:07.519Z,50.877182
2022-10-26T05:08:07.490Z,50.877190
2022-10-26T05:09:07.492Z,50.877163
2022-10-26T05:10:07.496Z,50.877182
2022-10-26T05:11:07.491Z,50.877205
2022-10-26T05:12:07.445Z,50.877182
2022-10-26T05:13:07.437Z,50.877193
2022-10-26T05:14:08.439Z,50.877197
2022-10-26T05:15:08.649Z,50.877171
2022-10-26T05:16:07.499Z,50.877182
2022-10-26T05:17:07.387Z,50.877182
2022-10-26T05:18:07.397Z,50.877193
2022-10-26T05:19:07.397Z,50.877178
2022-10-26T05:20:07.372Z,50.877174
2022-10-26T05:21:07.368Z,50.877190
2022-10-26T05:22:07.376Z,50.877193
2022-10-26T05:23:07.404Z,50.877182
2022-10-26T05:24:10.138Z,50.877209
2022-10-26T05:25:07.341Z,50.877121
2022-10-26T05:26:07.330Z,50.877110
2022-10-26T05:27:07.335Z,50.877171
2022-10-26T05:28:07.303Z,50.877171
2022-10-26T05:29:07.338Z,50.877193
2022-10-26T05:31:07.282Z,50.877228
2022-10-26T05:32:07.275Z,50.877197
2022-10-26T05:33:07.254Z,50.877213
2022-10-26T05:34:07.246Z,50.877167
2022-10-26T05:35:07.231Z,50.877182
2022-10-26T05:36:07.338Z,50.877171
2022-10-26T05:37:07.215Z,50.877155
2022-10-26T05:38:07.214Z,50.877186
2022-10-26T05:39:07.206Z,50.877213
2022-10-26T05:40:07.198Z,50.877193
2022-10-26T05:41:07.200Z,50.877140
2022-10-26T05:42:07.187Z,50.877155
2022-10-26T05:43:07.163Z,50.877178
2022-10-26T05:44:07.153Z,50.877125
2022-10-26T05:45:07.290Z,50.877144
2022-10-26T05:46:07.158Z,50.877213
2022-10-26T05:47:07.138Z,50.877190
2022-10-26T05:48:07.101Z,50.877140
2022-10-26T05:49:07.097Z,50.877151
2022-10-26T05:50:07.207Z,50.877155
2022-10-26T05:51:07.098Z,50.877163
2022-10-26T05:52:07.062Z,50.877163
2022-10-26T05:53:07.051Z,50.877140
2022-10-26T05:54:10.283Z,50.877151
2022-10-26T05:56:08.622Z,50.877151
2022-10-26T05:57:07.016Z,50.877201
2022-10-26T05:58:07.042Z,50.877205
2022-10-26T05:59:07.013Z,50.877190
2022-10-26T06:00:06.984Z,50.877182
2022-10-26T06:01:07.015Z,50.877113
2022-10-26T06:02:07.084Z,50.877125
2022-10-26T06:03:06.972Z,50.877193
2022-10-26T06:04:06.949Z,50.877106
2022-10-26T06:05:06.940Z,50.877132
2022-10-26T06:06:07.406Z,50.877190
2022-10-26T06:07:06.933Z,50.877209
2022-10-26T06:08:06.905Z,50.877209
2022-10-26T06:09:07.048Z,50.877346
2022-10-26T06:10:07.123Z,50.877293
2022-10-26T06:11:06.892Z,50.877243
2022-10-26T06:12:06.879Z,50.877316
2022-10-26T06:13:06.863Z,50.877300
2022-10-26T06:14:06.869Z,50.877392
2022-10-26T06:15:06.837Z,50.877377
2022-10-26T06:16:06.833Z,50.877300
2022-10-26T06:17:06.815Z,50.877296
2022-10-26T06:18:06.800Z,50.877327
2022-10-26T06:19:06.808Z,50.877304
2022-10-26T06:20:07.964Z,50.877304
2022-10-26T06:21:06.774Z,50.877304
2022-10-26T06:22:06.757Z,50.877377
2022-10-26T06:23:06.755Z,50.877373
2022-10-26T06:24:06.765Z,50.877392
2022-10-26T06:25:06.728Z,50.877453
2022-10-26T06:26:06.725Z,50.877434
2022-10-26T06:27:06.730Z,50.877415
2022-10-26T06:28:06.731Z,50.877361
2022-10-26T06:29:06.717Z,50.877396
2022-10-26T06:30:06.725Z,50.877392
2022-10-26T06:31:06.680Z,50.877323
2022-10-26T06:32:06.655Z,50.877388
2022-10-26T06:33:18.263Z,50.877239
2022-10-26T06:34:06.646Z,50.877178
2022-10-26T06:35:07.313Z,50.877155
2022-10-26T06:36:07.638Z,50.877193
2022-10-26T06:37:06.616Z,50.877178
2022-10-26T06:38:06.609Z,50.877190
2022-10-26T06:39:06.603Z,50.877171
2022-10-26T06:40:06.593Z,50.877171
2022-10-26T06:41:06.650Z,50.877136
2022-10-26T06:42:06.566Z,50.877171
2022-10-26T06:43:06.552Z,50.877216
2022-10-26T06:44:06.568Z,50.877186
2022-10-26T06:45:06.558Z,50.877178
2022-10-26T06:46:06.551Z,50.877163
2022-10-26T06:47:06.515Z,50.877151
2022-10-26T06:48:06.508Z,50.877136
2022-10-26T06:49:06.493Z,50.877171
2022-10-26T06:50:06.483Z,50.877209
2022-10-26T06:51:06.727Z,50.877201
2022-10-26T06:52:09.071Z,50.877151
2022-10-26T06:53:06.453Z,50.877155
2022-10-26T06:54:06.440Z,50.877171
2022-10-26T06:55:06.465Z,50.877151
2022-10-26T06:56:06.447Z,50.877193
2022-10-26T06:57:06.432Z,50.877190
2022-10-26T06:58:06.407Z,50.877190
2022-10-26T06:59:07.126Z,50.877186
2022-10-26T07:00:06.392Z,50.877201
2022-10-26T07:01:06.470Z,50.877205
2022-10-26T07:02:06.780Z,50.877232
2022-10-26T07:03:06.445Z,50.877182
2022-10-26T07:04:06.353Z,50.877178
2022-10-26T07:05:06.360Z,50.877201
2022-10-26T07:06:06.439Z,50.877193
2022-10-26T07:07:06.306Z,50.877140
2022-10-26T07:08:06.341Z,50.877235
2022-10-26T07:09:06.294Z,50.877201
2022-10-26T07:10:06.302Z,50.877171
2022-10-26T07:11:06.312Z,50.877209
2022-10-26T07:12:06.285Z,50.877213
2022-10-26T07:13:06.276Z,50.877151
2022-10-26T07:14:06.258Z,50.877216
2022-10-26T07:15:06.334Z,50.877132
2022-10-26T07:16:06.234Z,50.877220
2022-10-26T07:17:06.268Z,50.877167
2022-10-26T07:18:06.233Z,50.877213
2022-10-26T07:19:06.211Z,50.877182
2022-10-26T07:20:06.186Z,50.877251
2022-10-26T07:21:06.180Z,50.877266
2022-10-26T07:22:06.178Z,50.877228
2022-10-26T07:23:06.184Z,50.877224
2022-10-26T07:24:06.144Z,50.877171
2022-10-26T07:25:06.159Z,50.877216
2022-10-26T07:26:06.132Z,50.877197
2022-10-26T07:27:06.117Z,50.877216
2022-10-26T07:28:06.118Z,50.877243
2022-10-26T07:29:06.132Z,50.877251
2022-10-26T07:30:06.093Z,50.877171
2022-10-26T07:31:06.155Z,50.877167
2022-10-26T07:32:06.142Z,50.877174
2022-10-26T07:33:06.108Z,50.877216
2022-10-26T07:34:06.048Z,50.877216
2022-10-26T07:35:06.032Z,50.877205
2022-10-26T07:36:06.037Z,50.877182
2022-10-26T07:37:06.046Z,50.877171
2022-10-26T07:38:06.029Z,50.877132
2022-10-26T07:39:06.011Z,50.877148
2022-10-26T07:40:06.948Z,50.877136
2022-10-26T07:41:05.989Z,50.877186
2022-10-26T07:42:06.006Z,50.877190
2022-10-26T07:43:06.051Z,50.877167
2022-10-26T07:44:05.970Z,50.877174
2022-10-26T07:45:05.980Z,50.877167
2022-10-26T07:46:06.000Z,50.877186
2022-10-26T07:47:05.930Z,50.877186
2022-10-26T07:48:05.932Z,50.877167
2022-10-26T07:49:05.929Z,50.877216
2022-10-26T07:50:05.900Z,50.877201
2022-10-26T07:51:05.881Z,50.877190
2022-10-26T07:52:05.894Z,50.877209
2022-10-26T07:53:05.972Z,50.877193
2022-10-26T07:54:05.860Z,50.877213
2022-10-26T07:55:05.849Z,50.877213
2022-10-26T07:56:05.843Z,50.877178
2022-10-26T07:58:05.888Z,50.877125
2022-10-26T07:59:05.834Z,50.877174
2022-10-26T08:00:05.818Z,50.877186
2022-10-26T08:01:05.841Z,50.877213
2022-10-26T08:02:05.838Z,50.877167
2022-10-26T08:03:05.786Z,50.877178
2022-10-26T08:04:05.776Z,50.877102
2022-10-26T08:05:05.889Z,50.877178
2022-10-26T08:06:05.743Z,50.877209
2022-10-26T08:07:05.728Z,50.877209
2022-10-26T08:08:05.815Z,50.877151
2022-10-26T08:09:05.715Z,50.877197
2022-10-26T08:10:05.704Z,50.877167
2022-10-26T08:11:05.687Z,50.877205
2022-10-26T08:12:05.696Z,50.877205
2022-10-26T08:13:05.675Z,50.877163
2022-10-26T08:14:05.706Z,50.877209
2022-10-26T08:15:05.652Z,50.877213
2022-10-26T08:16:05.630Z,50.877224
2022-10-26T08:17:05.691Z,50.877201
2022-10-26T08:18:05.608Z,50.877140
2022-10-26T08:19:05.631Z,50.877205
2022-10-26T08:20:05.595Z,50.877228
2022-10-26T08:21:11.002Z,50.877228
2022-10-26T08:22:06.623Z,50.877220
2022-10-26T08:23:05.567Z,50.877205
2022-10-26T08:24:05.561Z,50.877197
2022-10-26T08:25:05.595Z,50.877163
2022-10-26T08:26:05.575Z,50.877224
2022-10-26T08:27:05.589Z,50.877209
2022-10-26T08:28:05.508Z,50.877140
2022-10-26T08:29:05.508Z,50.877178
2022-10-26T08:30:05.497Z,50.877174
2022-10-26T08:31:05.490Z,50.877197
2022-10-26T08:32:05.543Z,50.877159
2022-10-26T08:33:05.476Z,50.877167
2022-10-26T08:34:05.459Z,50.877151
2022-10-26T08:35:05.468Z,50.877148
2022-10-26T08:36:05.457Z,50.877151
2022-10-26T08:37:05.440Z,50.877216
2022-10-26T08:38:05.426Z,50.877197
2022-10-26T08:39:05.398Z,50.877201
2022-10-26T08:40:05.398Z,50.877182
2022-10-26T08:41:05.383Z,50.877232
2022-10-26T08:42:05.393Z,50.877193
2022-10-26T08:43:05.377Z,50.877167
2022-10-26T08:44:05.348Z,50.877155
2022-10-26T08:45:05.345Z,50.877182
2022-10-26T08:46:05.334Z,50.877171
2022-10-26T08:47:05.375Z,50.877171
2022-10-26T08:48:05.318Z,50.877167
2022-10-26T08:49:05.368Z,50.877213
2022-10-26T08:50:05.285Z,50.877144
2022-10-26T08:51:05.296Z,50.877209
2022-10-26T08:52:05.291Z,50.877148
2022-10-26T08:53:05.268Z,50.877193
2022-10-26T08:54:05.259Z,50.877193
2022-10-26T08:55:05.285Z,50.877178
2022-10-26T08:56:05.272Z,50.877159
2022-10-26T08:57:05.221Z,50.877163
2022-10-26T08:58:37.144Z,50.877209
2022-10-26T08:59:05.225Z,50.877220
2022-10-26T09:00:05.194Z,50.877190
2022-10-26T09:01:05.275Z,50.877213
2022-10-26T09:02:05.287Z,50.877205
2022-10-26T09:03:05.160Z,50.877224
2022-10-26T09:04:05.174Z,50.877232
2022-10-26T09:05:05.164Z,50.877186
2022-10-26T09:06:05.130Z,50.877121
2022-10-26T09:07:05.124Z,50.877083
2022-10-26T09:08:05.133Z,50.877113
2022-10-26T09:09:05.138Z,50.877117
2022-10-26T09:10:05.117Z,50.877144
2022-10-26T09:11:05.109Z,50.877167
2022-10-26T09:12:05.071Z,50.877182
2022-10-26T09:13:05.079Z,50.877224
2022-10-26T09:14:05.052Z,50.877258
2022-10-26T09:15:05.052Z,50.877209
2022-10-26T09:16:05.051Z,50.877171
2022-10-26T09:17:05.040Z,50.877186
2022-10-26T09:18:05.013Z,50.877216
2022-10-26T09:19:05.020Z,50.877193
2022-10-26T09:20:05.017Z,50.877197
2022-10-26T09:21:05.022Z,50.877182
2022-10-26T09:22:04.992Z,50.877174
2022-10-26T09:23:04.981Z,50.877148
2022-10-26T09:24:04.966Z,50.877159
2022-10-26T09:25:07.652Z,50.877159
2022-10-26T09:26:04.940Z,50.877159
2022-10-26T09:28:04.921Z,50.877159
2022-10-26T09:29:04.972Z,50.877174
2022-10-26T09:30:04.911Z,50.877201
2022-10-26T09:31:04.891Z,50.877159
2022-10-26T09:32:04.900Z,50.877140
2022-10-26T09:33:07.416Z,50.877102
2022-10-26T09:34:04.883Z,50.877148
2022-10-26T09:35:04.852Z,50.877094
2022-10-26T09:36:04.831Z,50.877159
2022-10-26T09:37:04.817Z,50.877110
2022-10-26T09:38:04.820Z,50.877125
2022-10-26T09:39:04.827Z,50.877102
2022-10-26T09:40:04.796Z,50.877190
2022-10-26T09:41:04.784Z,50.877151
2022-10-26T09:42:04.790Z,50.877052
2022-10-26T09:43:04.769Z,50.877193
2022-10-26T09:44:04.775Z,50.877197
2022-10-26T09:45:04.757Z,50.877197
2022-10-26T09:46:04.733Z,50.877213
2022-10-26T09:47:04.744Z,50.877224
2022-10-26T09:48:06.660Z,50.877216
2022-10-26T09:49:04.730Z,50.877228
2022-10-26T09:50:04.791Z,50.877232
2022-10-26T09:51:05.055Z,50.877235
2022-10-26T09:52:04.737Z,50.877224
2022-10-26T09:53:04.686Z,50.877235
2022-10-26T09:54:04.658Z,50.877220
2022-10-26T09:55:04.648Z,50.877228
2022-10-26T09:56:04.650Z,50.877251
2022-10-26T09:57:04.634Z,50.877239
2022-10-26T09:58:04.644Z,50.877239
2022-10-26T09:59:04.610Z,50.877220
2022-10-26T10:00:04.622Z,50.877235
2022-10-26T10:01:04.633Z,50.877235
2022-10-26T10:02:04.600Z,50.877251
2022-10-26T10:03:04.628Z,50.877243
2022-10-26T10:04:04.574Z,50.877239
2022-10-26T10:05:04.601Z,50.877251
2022-10-26T10:06:04.567Z,50.877270
2022-10-26T10:07:04.548Z,50.877270
2022-10-26T10:08:04.534Z,50.877254
2022-10-26T10:09:04.512Z,50.877254
2022-10-26T10:10:04.527Z,50.877247
2022-10-26T10:11:04.501Z,50.877243
2022-10-26T10:12:04.532Z,50.877243
2022-10-26T10:13:04.485Z,50.877262
2022-10-26T10:14:04.465Z,50.877243
2022-10-26T10:15:04.550Z,50.877235
2022-10-26T10:16:04.458Z,50.877235
2022-10-26T10:17:04.546Z,50.877224
2022-10-26T10:18:04.433Z,50.877235
2022-10-26T10:19:04.408Z,50.877228
2022-10-26T10:20:04.432Z,50.877224
2022-10-26T10:21:04.401Z,50.877235
2022-10-26T10:22:04.472Z,50.877235
2022-10-26T10:23:04.377Z,50.877254
2022-10-26T10:24:04.367Z,50.877228
2022-10-26T10:25:04.361Z,50.877247
2022-10-26T10:26:04.342Z,50.877228
2022-10-26T10:27:04.394Z,50.877254
2022-10-26T10:28:04.379Z,50.877274
2022-10-26T10:29:04.303Z,50.877277
2022-10-26T10:30:04.507Z,50.877270
2022-10-26T10:31:04.331Z,50.877232
2022-10-26T10:32:04.294Z,50.877251
2022-10-26T10:33:04.296Z,50.877254
2022-10-26T10:34:04.297Z,50.877262
2022-10-26T10:35:04.316Z,50.877243
2022-10-26T10:36:04.260Z,50.877254
2022-10-26T10:37:04.234Z,50.877239
2022-10-26T10:38:04.242Z,50.877270
2022-10-26T10:39:04.217Z,50.877254
2022-10-26T10:40:04.222Z,50.877258
2022-10-26T10:41:04.217Z,50.877247
2022-10-26T10:42:04.200Z,50.877239
2022-10-26T10:43:04.206Z,50.877270
2022-10-26T10:44:04.194Z,50.877232
2022-10-26T10:45:04.156Z,50.877251
2022-10-26T10:46:04.186Z,50.877235
2022-10-26T10:47:04.137Z,50.877216
2022-10-26T10:48:04.214Z,50.877235
2022-10-26T10:49:04.122Z,50.877243
2022-10-26T10:50:04.105Z,50.877232
2022-10-26T10:51:04.089Z,50.877228
2022-10-26T10:52:04.084Z,50.877220
2022-10-26T10:53:04.083Z,50.877209
2022-10-26T10:54:04.071Z,50.877232
2022-10-26T10:55:04.048Z,50.877224
2022-10-26T10:56:05.441Z,50.877201
2022-10-26T10:57:04.060Z,50.877224
2022-10-26T10:58:04.023Z,50.877220
2022-10-26T10:59:04.164Z,50.877228
2022-10-26T11:00:04.015Z,50.877228
2022-10-26T11:01:04.033Z,50.877216
2022-10-26T11:02:04.149Z,50.877235
2022-10-26T11:03:03.972Z,50.877228
2022-10-26T11:04:04.061Z,50.877190
2022-10-26T11:05:03.948Z,50.877220
2022-10-26T11:06:03.967Z,50.877220
2022-10-26T11:07:03.924Z,50.877235
2022-10-26T11:08:03.925Z,50.877270
2022-10-26T11:09:03.901Z,50.877247
2022-10-26T11:10:03.905Z,50.877346
2022-10-26T11:11:03.936Z,50.877319
2022-10-26T11:12:03.882Z,50.877342
2022-10-26T11:13:03.907Z,50.877388
2022-10-26T11:14:03.865Z,50.877384
2022-10-26T11:15:03.902Z,50.877365
2022-10-26T11:16:03.841Z,50.877380
2022-10-26T11:17:03.886Z,50.877388
2022-10-26T11:18:03.818Z,50.877331
2022-10-26T11:19:03.819Z,50.877388
2022-10-26T11:20:03.797Z,50.877357
2022-10-26T11:21:03.798Z,50.877441
2022-10-26T11:22:03.825Z,50.877472
2022-10-26T11:24:03.764Z,50.877426
2022-10-26T11:25:03.753Z,50.877411
2022-10-26T11:26:03.737Z,50.877338
2022-10-26T11:27:03.734Z,50.877369
2022-10-26T11:28:03.727Z,50.877460
2022-10-26T11:29:03.793Z,50.877434
2022-10-26T11:30:03.688Z,50.877422